Terminal Aerodrome Forecast
Issued by NWS

Current Version | Previous Version | Text Only | Print | Product List | Glossary On
Versions: 1 2 3 4 5 6 7 8 9 10 11 12 13 14
000
FTUS46 KSTO 041100
TAFSMF
TAF
KSMF 041128Z 0412/0512 15010KT P6SM SKC
     FM041300 17010G16KT P6SM BKN009
     FM041600 22008KT P6SM SCT014
     FM041800 23007KT P6SM SKC
     FM051100 18009KT P6SM SCT010=

USA.gov is the U.S. government's official web portal to all federal, state and local government web resources and services.